createdAt,value
2019-03-04T00:01:33.162Z,990.39
2019-03-04T00:02:33.221Z,990.39
2019-03-04T00:04:26.717Z,990.40
2019-03-04T00:05:26.764Z,990.35
2019-03-04T00:07:19.750Z,990.27
2019-03-04T00:08:19.808Z,990.13
2019-03-04T00:10:12.792Z,990.24
2019-03-04T00:11:12.849Z,990.30
2019-03-04T00:13:05.833Z,990.28
2019-03-04T00:14:05.881Z,990.19
2019-03-04T00:15:58.864Z,990.16
2019-03-04T00:16:58.924Z,990.19
2019-03-04T00:18:51.912Z,990.04
2019-03-04T00:19:51.958Z,990.09
2019-03-04T00:21:44.937Z,990.04
2019-03-04T00:22:45.004Z,990.02
2019-03-04T00:24:37.999Z,990.07
2019-03-04T00:25:38.054Z,989.97
2019-03-04T00:27:31.035Z,989.96
2019-03-04T00:28:31.098Z,990.00
2019-03-04T00:30:24.085Z,989.98
2019-03-04T00:31:24.134Z,989.92
2019-03-04T00:33:17.131Z,989.84
2019-03-04T00:34:17.173Z,989.80
2019-03-04T00:36:10.154Z,989.71
2019-03-04T00:37:10.216Z,989.61
2019-03-04T00:39:03.223Z,989.49
2019-03-04T00:40:03.273Z,989.48
2019-03-04T00:41:56.256Z,989.49
2019-03-04T00:42:56.316Z,989.42
2019-03-04T00:44:49.301Z,989.35
2019-03-04T00:45:49.354Z,989.33
2019-03-04T00:47:42.326Z,989.34
2019-03-04T00:48:42.396Z,989.34
2019-03-04T00:50:35.375Z,989.38
2019-03-04T00:51:35.424Z,989.32
2019-03-04T00:53:28.418Z,989.29
2019-03-04T00:54:28.466Z,989.23
2019-03-04T00:56:21.449Z,989.15
2019-03-04T00:57:21.505Z,989.15
2019-03-04T00:59:14.492Z,988.96
2019-03-04T01:00:14.547Z,988.89
2019-03-04T01:02:07.532Z,988.81
2019-03-04T01:03:07.591Z,988.78
2019-03-04T01:05:01.099Z,988.87
2019-03-04T01:06:03.327Z,988.95
2019-03-04T01:07:54.138Z,988.81
2019-03-04T01:08:54.185Z,988.84
2019-03-04T01:10:47.185Z,988.83
2019-03-04T01:11:47.235Z,988.81
2019-03-04T01:13:40.236Z,988.86
2019-03-04T01:14:40.290Z,988.80
2019-03-04T01:16:33.266Z,988.78
2019-03-04T01:17:33.324Z,988.81
2019-03-04T01:19:26.315Z,988.72
2019-03-04T01:20:26.362Z,988.77
2019-03-04T01:22:19.359Z,988.75
2019-03-04T01:23:19.403Z,988.74
2019-03-04T01:25:12.391Z,988.73
2019-03-04T01:26:12.435Z,988.76
2019-03-04T01:28:05.436Z,988.70
2019-03-04T01:29:05.497Z,988.65
2019-03-04T01:30:58.488Z,988.55
2019-03-04T01:31:58.540Z,988.53
2019-03-04T01:33:51.524Z,988.44
2019-03-04T01:34:51.576Z,988.39
2019-03-04T01:36:44.547Z,988.40
2019-03-04T01:37:44.613Z,988.29
2019-03-04T01:39:37.603Z,988.25
2019-03-04T01:40:37.651Z,988.18
2019-03-04T01:42:30.636Z,988.19
2019-03-04T01:43:30.698Z,988.10
2019-03-04T01:45:23.687Z,988.02
2019-03-04T01:46:23.739Z,988.05
2019-03-04T01:48:16.723Z,987.98
2019-03-04T01:49:16.784Z,987.96
2019-03-04T01:51:09.784Z,987.90
2019-03-04T01:52:09.822Z,987.85
2019-03-04T01:54:02.809Z,987.78
2019-03-04T01:55:02.862Z,987.75
2019-03-04T01:56:55.840Z,987.72
2019-03-04T01:57:55.898Z,987.58
2019-03-04T01:59:48.890Z,987.62
2019-03-04T02:00:48.944Z,987.66
2019-03-04T02:02:41.923Z,987.57
2019-03-04T02:03:41.983Z,987.56
2019-03-04T02:05:34.973Z,987.61
2019-03-04T02:06:35.021Z,987.61
2019-03-04T02:08:28.004Z,987.57
2019-03-04T02:09:28.067Z,987.60
2019-03-04T02:11:21.049Z,987.56
2019-03-04T02:12:21.096Z,987.51
2019-03-04T02:14:14.103Z,987.37
2019-03-04T02:15:14.156Z,987.15
2019-03-04T02:17:07.136Z,987.14
2019-03-04T02:18:07.192Z,987.15
2019-03-04T02:20:00.272Z,987.23
2019-03-04T02:21:00.234Z,987.25
2019-03-04T02:22:53.235Z,987.12
2019-03-04T02:23:53.272Z,987.09
2019-03-04T02:25:46.261Z,986.88
2019-03-04T02:26:46.325Z,986.94
2019-03-04T02:28:39.321Z,986.72
2019-03-04T02:29:39.376Z,986.66
2019-03-04T02:31:32.368Z,986.72
2019-03-04T02:32:32.415Z,986.79
2019-03-04T02:34:25.406Z,986.87
2019-03-04T02:35:25.451Z,986.84
2019-03-04T02:37:18.447Z,986.92
2019-03-04T02:38:18.497Z,986.88
2019-03-04T02:40:11.495Z,986.81
2019-03-04T02:41:11.557Z,986.88
2019-03-04T02:43:04.546Z,986.89
2019-03-04T02:44:04.586Z,986.98
2019-03-04T02:45:57.576Z,986.89
2019-03-04T02:46:57.623Z,986.93
2019-03-04T02:48:50.610Z,986.77
2019-03-04T02:49:50.664Z,986.77
2019-03-04T02:51:43.641Z,986.61
2019-03-04T02:52:43.709Z,986.56
2019-03-04T02:54:36.687Z,986.54
2019-03-04T02:55:36.737Z,986.49
2019-03-04T02:57:29.721Z,986.50
2019-03-04T02:58:29.777Z,986.58
2019-03-04T03:00:22.772Z,986.48
2019-03-04T03:01:22.810Z,986.43
2019-03-04T03:03:15.795Z,986.18
2019-03-04T03:04:15.851Z,986.18
2019-03-04T03:06:08.841Z,986.08
2019-03-04T03:07:08.891Z,986.07
2019-03-04T03:09:01.876Z,986.24
2019-03-04T03:10:01.931Z,986.19
2019-03-04T03:11:54.919Z,986.04
2019-03-04T03:12:54.977Z,986.00
2019-03-04T03:14:47.969Z,985.89
2019-03-04T03:15:48.023Z,985.83
2019-03-04T03:17:40.996Z,985.77
2019-03-04T03:18:41.056Z,985.76
2019-03-04T03:20:34.043Z,985.68
2019-03-04T03:21:34.096Z,985.68
2019-03-04T03:23:27.082Z,985.62
2019-03-04T03:24:27.133Z,985.59
2019-03-04T03:26:20.122Z,985.45
2019-03-04T03:27:20.183Z,985.51
2019-03-04T03:29:13.153Z,985.37
2019-03-04T03:30:13.229Z,985.27
2019-03-04T03:32:06.201Z,985.02
2019-03-04T03:33:06.252Z,984.97
2019-03-04T03:34:59.264Z,984.84
2019-03-04T03:35:59.301Z,984.83
2019-03-04T03:37:52.270Z,984.66
2019-03-04T03:38:52.331Z,984.46
2019-03-04T03:40:45.319Z,984.26
2019-03-04T03:41:45.366Z,984.20
2019-03-04T03:43:38.354Z,984.20
2019-03-04T03:44:38.409Z,984.38
2019-03-04T03:46:31.392Z,984.48
2019-03-04T03:47:31.445Z,984.53
2019-03-04T03:49:24.424Z,984.77
2019-03-04T03:50:24.483Z,984.85
2019-03-04T03:52:17.477Z,984.75
2019-03-04T03:53:17.526Z,984.61
2019-03-04T03:55:10.783Z,984.34
2019-03-04T03:56:10.564Z,984.40
2019-03-04T03:58:03.542Z,984.64
2019-03-04T03:59:03.599Z,984.52
2019-03-04T04:00:56.591Z,984.47
2019-03-04T04:01:56.640Z,984.56
2019-03-04T04:03:49.643Z,984.50
2019-03-04T04:04:49.698Z,984.40
2019-03-04T04:06:42.675Z,984.26
2019-03-04T04:07:42.732Z,984.18
2019-03-04T04:09:35.713Z,984.09
2019-03-04T04:10:35.768Z,984.10
2019-03-04T04:12:28.752Z,983.90
2019-03-04T04:13:28.805Z,983.91
2019-03-04T04:15:21.816Z,983.88
2019-03-04T04:16:21.849Z,983.78
2019-03-04T04:18:14.831Z,983.79
2019-03-04T04:19:14.894Z,983.66
2019-03-04T04:21:07.877Z,983.70
2019-03-04T04:22:07.929Z,983.48
2019-03-04T04:24:00.924Z,983.55
2019-03-04T04:25:00.968Z,983.58
2019-03-04T04:26:53.951Z,983.55
2019-03-04T04:27:54.003Z,983.37
2019-03-04T04:29:46.981Z,983.31
2019-03-04T04:30:47.039Z,983.24
2019-03-04T04:32:40.535Z,983.06
2019-03-04T04:33:40.584Z,982.92
2019-03-04T04:35:33.588Z,982.72
2019-03-04T04:36:33.643Z,982.76
2019-03-04T04:38:26.623Z,982.94
2019-03-04T04:39:26.683Z,982.94
2019-03-04T04:41:19.672Z,982.80
2019-03-04T04:42:19.726Z,982.72
2019-03-04T04:44:12.811Z,982.81
2019-03-04T04:45:12.764Z,982.76
2019-03-04T04:47:05.753Z,982.67
2019-03-04T04:48:05.800Z,982.63
2019-03-04T04:49:58.804Z,982.62
2019-03-04T04:50:58.859Z,982.62
2019-03-04T04:52:51.845Z,982.64
2019-03-04T04:53:51.897Z,982.77
2019-03-04T04:55:44.900Z,982.73
2019-03-04T04:56:44.933Z,982.59
2019-03-04T04:58:37.936Z,982.68
2019-03-04T04:59:37.978Z,982.66
2019-03-04T05:01:30.966Z,982.62
2019-03-04T05:02:31.025Z,982.61
2019-03-04T05:04:24.020Z,982.51
2019-03-04T05:05:24.075Z,982.66
2019-03-04T05:07:17.069Z,982.56
2019-03-04T05:08:17.117Z,982.57
2019-03-04T05:10:10.102Z,982.42
2019-03-04T05:11:10.162Z,982.54
2019-03-04T05:13:03.160Z,982.53
2019-03-04T05:14:03.200Z,982.41
2019-03-04T05:15:56.206Z,982.54
2019-03-04T05:16:56.263Z,982.63
2019-03-04T05:18:49.236Z,982.47
2019-03-04T05:19:49.293Z,982.56
2019-03-04T05:21:42.284Z,982.33
2019-03-04T05:22:42.332Z,982.32
2019-03-04T05:24:35.310Z,982.16
2019-03-04T05:25:35.369Z,982.29
2019-03-04T05:27:28.359Z,982.25
2019-03-04T05:28:28.409Z,982.23
2019-03-04T05:30:21.388Z,982.08
2019-03-04T05:31:21.445Z,982.10
2019-03-04T05:33:14.431Z,981.71
2019-03-04T05:34:14.484Z,982.16
2019-03-04T05:36:07.506Z,982.08
2019-03-04T05:37:07.545Z,982.01
2019-03-04T05:39:00.520Z,982.06
2019-03-04T05:40:00.581Z,982.03
2019-03-04T05:41:53.569Z,981.87
2019-03-04T05:42:53.623Z,981.80
2019-03-04T05:44:46.618Z,981.75
2019-03-04T05:45:46.690Z,981.55
2019-03-04T05:47:39.655Z,981.50
2019-03-04T05:48:39.708Z,981.61
2019-03-04T05:50:32.686Z,981.50
2019-03-04T05:51:32.745Z,981.67
2019-03-04T05:53:25.731Z,981.58
2019-03-04T05:54:25.784Z,981.60
2019-03-04T05:56:18.774Z,981.57
2019-03-04T05:57:18.827Z,981.66
2019-03-04T05:59:19.324Z,981.53
2019-03-04T06:00:11.872Z,981.57
2019-03-04T06:02:04.859Z,981.42
2019-03-04T06:03:04.907Z,981.38
2019-03-04T06:04:57.890Z,981.41
2019-03-04T06:05:57.948Z,981.24
2019-03-04T06:07:50.939Z,981.25
2019-03-04T06:08:50.988Z,981.22
2019-03-04T06:10:43.965Z,981.12
2019-03-04T06:11:44.024Z,981.12
2019-03-04T06:13:37.027Z,981.01
2019-03-04T06:14:37.064Z,981.20
2019-03-04T06:16:30.068Z,981.41
2019-03-04T06:17:30.102Z,981.39
2019-03-04T06:19:23.092Z,981.77
2019-03-04T06:20:23.154Z,981.28
2019-03-04T06:22:16.141Z,981.37
2019-03-04T06:23:16.189Z,981.26
2019-03-04T06:25:09.179Z,981.42
2019-03-04T06:26:09.229Z,981.31
2019-03-04T06:28:02.210Z,981.27
2019-03-04T06:29:02.269Z,981.25
2019-03-04T06:30:55.249Z,981.07
2019-03-04T06:31:55.300Z,981.17
2019-03-04T06:33:48.284Z,981.23
2019-03-04T06:34:48.340Z,981.24
2019-03-04T06:36:41.430Z,981.35
2019-03-04T06:37:41.380Z,981.43
2019-03-04T06:39:34.358Z,981.60
2019-03-04T06:40:34.414Z,981.77
2019-03-04T06:42:27.401Z,981.77
2019-03-04T06:43:27.452Z,981.71
2019-03-04T06:45:20.439Z,982.02
2019-03-04T06:46:20.492Z,982.05
2019-03-04T06:48:13.485Z,981.69
2019-03-04T06:49:13.541Z,981.69
2019-03-04T06:51:06.517Z,981.96
2019-03-04T06:52:06.574Z,982.13
2019-03-04T06:53:59.565Z,982.22
2019-03-04T06:54:59.612Z,982.16
2019-03-04T06:56:54.461Z,982.25
2019-03-04T06:57:52.655Z,982.17
2019-03-04T06:59:45.641Z,981.95
2019-03-04T07:00:45.695Z,982.33
2019-03-04T07:02:38.677Z,982.10
2019-03-04T07:03:38.729Z,982.16
2019-03-04T07:05:31.713Z,982.23
2019-03-04T07:06:31.770Z,982.22
2019-03-04T07:08:24.761Z,982.41
2019-03-04T07:09:24.807Z,982.07
2019-03-04T07:11:17.792Z,981.91
2019-03-04T07:12:17.847Z,981.75
2019-03-04T07:14:10.855Z,981.52
2019-03-04T07:15:10.882Z,981.59
2019-03-04T07:17:03.882Z,981.83
2019-03-04T07:18:03.917Z,981.85
2019-03-04T07:19:56.897Z,981.87
2019-03-04T07:20:56.955Z,981.90
2019-03-04T07:22:49.945Z,982.01
2019-03-04T07:23:50.005Z,981.87
2019-03-04T07:25:42.973Z,981.75
2019-03-04T07:26:43.022Z,981.96
2019-03-04T07:28:36.009Z,981.97
2019-03-04T07:29:36.059Z,982.03
2019-03-04T07:31:29.040Z,981.94
2019-03-04T07:32:29.096Z,982.01
2019-03-04T07:34:22.080Z,982.01
2019-03-04T07:35:22.132Z,981.98
2019-03-04T07:37:15.124Z,982.07
2019-03-04T07:38:15.178Z,982.10
2019-03-04T07:40:08.174Z,982.16
2019-03-04T07:41:08.220Z,982.16
2019-03-04T07:43:01.211Z,982.26
2019-03-04T07:44:01.261Z,982.26
2019-03-04T07:45:54.247Z,982.37
2019-03-04T07:46:54.300Z,982.30
2019-03-04T07:48:47.280Z,982.37
2019-03-04T07:49:47.350Z,982.27
2019-03-04T07:51:40.317Z,982.34
2019-03-04T07:52:40.377Z,982.43
2019-03-04T07:54:33.359Z,982.29
2019-03-04T07:55:33.414Z,982.26
2019-03-04T07:57:26.417Z,982.37
2019-03-04T07:58:26.459Z,982.29
2019-03-04T08:00:20.947Z,982.38
2019-03-04T08:01:20.993Z,982.40
2019-03-04T08:03:13.993Z,982.43
2019-03-04T08:04:14.044Z,982.56
2019-03-04T08:06:07.065Z,982.41
2019-03-04T08:07:07.120Z,982.42
2019-03-04T08:09:00.108Z,982.35
2019-03-04T08:10:00.312Z,982.43
2019-03-04T08:11:53.148Z,982.27
2019-03-04T08:12:53.209Z,982.27
2019-03-04T08:14:46.215Z,982.32
2019-03-04T08:15:46.247Z,982.65
2019-03-04T08:17:39.343Z,982.67
2019-03-04T08:18:39.285Z,982.76
2019-03-04T08:20:32.271Z,982.88
2019-03-04T08:21:32.326Z,982.79
2019-03-04T08:23:25.321Z,982.82
2019-03-04T08:24:25.371Z,982.83
2019-03-04T08:26:18.349Z,982.96
2019-03-04T08:27:18.408Z,982.95
2019-03-04T08:29:11.392Z,983.09
2019-03-04T08:30:11.449Z,982.89
2019-03-04T08:32:04.423Z,983.06
2019-03-04T08:33:04.482Z,983.02
2019-03-04T08:34:57.484Z,982.88
2019-03-04T08:35:57.538Z,982.87
2019-03-04T08:37:50.543Z,982.85
2019-03-04T08:38:50.571Z,982.82
2019-03-04T08:40:43.555Z,982.79
2019-03-04T08:41:43.615Z,982.83
2019-03-04T08:43:36.612Z,982.89
2019-03-04T08:44:36.655Z,982.76
2019-03-04T08:46:29.630Z,982.81
2019-03-04T08:47:29.697Z,982.75
2019-03-04T08:49:22.677Z,982.78
2019-03-04T08:50:22.726Z,982.65
2019-03-04T08:52:15.703Z,982.64
2019-03-04T08:53:15.763Z,982.84
2019-03-04T08:55:08.746Z,982.57
2019-03-04T08:56:08.798Z,982.58
2019-03-04T08:58:01.799Z,982.55
2019-03-04T08:59:01.839Z,982.47
2019-03-04T09:00:55.343Z,982.73
2019-03-04T09:01:55.391Z,982.66
2019-03-04T09:03:48.401Z,982.47
2019-03-04T09:04:48.431Z,982.62
2019-03-04T09:06:41.414Z,982.57
2019-03-04T09:07:41.471Z,982.70
2019-03-04T09:09:34.469Z,982.46
2019-03-04T09:10:34.519Z,982.58
2019-03-04T09:12:27.499Z,982.51
2019-03-04T09:13:27.563Z,982.71
2019-03-04T09:15:20.548Z,982.54
2019-03-04T09:16:20.598Z,982.53
2019-03-04T09:18:13.692Z,982.35
2019-03-04T09:19:13.646Z,982.56
2019-03-04T09:21:06.633Z,982.45
2019-03-04T09:22:06.692Z,982.43
2019-03-04T09:23:59.682Z,982.60
2019-03-04T09:24:59.733Z,982.49
2019-03-04T09:26:52.716Z,982.53
2019-03-04T09:27:52.772Z,982.54
2019-03-04T09:29:46.759Z,982.32
2019-03-04T09:30:45.858Z,982.48
2019-03-04T09:32:38.849Z,982.40
2019-03-04T09:33:38.902Z,982.45
2019-03-04T09:35:32.781Z,982.24
2019-03-04T09:36:31.943Z,982.44
2019-03-04T09:38:24.960Z,982.36
2019-03-04T09:39:24.982Z,982.56
2019-03-04T09:41:17.963Z,982.46
2019-03-04T09:42:18.024Z,982.47
2019-03-04T09:44:11.012Z,982.44
2019-03-04T09:45:11.064Z,982.33
2019-03-04T09:47:04.057Z,982.46
2019-03-04T09:48:04.100Z,982.59
2019-03-04T09:49:57.086Z,982.47
2019-03-04T09:50:57.130Z,982.49
2019-03-04T09:52:50.129Z,982.52
2019-03-04T09:53:50.186Z,982.59
2019-03-04T09:55:43.203Z,982.69
2019-03-04T09:56:43.253Z,982.75
2019-03-04T09:58:36.232Z,982.65
2019-03-04T09:59:36.292Z,982.81
2019-03-04T10:01:29.300Z,982.95
2019-03-04T10:02:29.327Z,982.84
2019-03-04T10:04:22.310Z,982.86
2019-03-04T10:05:22.363Z,982.96
2019-03-04T10:07:15.342Z,983.01
2019-03-04T10:08:15.401Z,982.89
2019-03-04T10:10:08.391Z,982.95
2019-03-04T10:11:08.439Z,982.83
2019-03-04T10:13:01.418Z,982.95
2019-03-04T10:14:01.476Z,982.96
2019-03-04T10:15:54.469Z,982.95
2019-03-04T10:16:54.512Z,983.04
2019-03-04T10:18:47.491Z,982.94
2019-03-04T10:19:47.549Z,983.02
2019-03-04T10:21:40.538Z,982.90
2019-03-04T10:22:40.591Z,982.95
2019-03-04T10:24:33.578Z,982.88
2019-03-04T10:25:33.627Z,982.95
2019-03-04T10:27:26.611Z,982.89
2019-03-04T10:28:26.669Z,982.83
2019-03-04T10:30:19.660Z,982.79
2019-03-04T10:31:19.705Z,982.93
2019-03-04T10:33:12.692Z,982.92
2019-03-04T10:34:12.749Z,982.95
2019-03-04T10:36:05.734Z,982.79
2019-03-04T10:37:05.782Z,982.85
2019-03-04T10:38:58.767Z,982.84
2019-03-04T10:39:58.819Z,982.88
2019-03-04T10:41:51.816Z,982.81
2019-03-04T10:42:51.867Z,982.81
2019-03-04T10:44:44.860Z,982.74
2019-03-04T10:45:44.903Z,982.74
2019-03-04T10:47:37.889Z,982.74
2019-03-04T10:48:37.949Z,982.62
2019-03-04T10:50:30.939Z,982.69
2019-03-04T10:51:30.991Z,982.56
2019-03-04T10:53:23.975Z,982.53
2019-03-04T10:54:24.028Z,982.45
2019-03-04T10:56:17.013Z,982.75
2019-03-04T10:57:17.069Z,982.84
2019-03-04T10:59:10.054Z,982.90
2019-03-04T11:00:10.107Z,982.98
2019-03-04T11:02:03.094Z,983.11
2019-03-04T11:03:03.146Z,983.30
2019-03-04T11:04:56.130Z,983.84
2019-03-04T11:05:56.181Z,983.74
2019-03-04T11:07:49.166Z,983.92
2019-03-04T11:08:49.225Z,983.94
2019-03-04T11:10:42.215Z,983.95
2019-03-04T11:11:42.263Z,983.96
2019-03-04T11:13:35.241Z,983.96
2019-03-04T11:14:35.293Z,983.91
2019-03-04T11:16:28.289Z,983.97
2019-03-04T11:17:28.337Z,984.00
2019-03-04T11:19:21.333Z,983.98
2019-03-04T11:20:21.390Z,984.00
2019-03-04T11:22:14.378Z,984.01
2019-03-04T11:23:15.220Z,984.05
2019-03-04T11:25:07.409Z,984.06
2019-03-04T11:26:07.459Z,984.14
2019-03-04T11:28:00.452Z,984.03
2019-03-04T11:29:00.492Z,984.09
2019-03-04T11:30:53.475Z,984.06
2019-03-04T11:31:53.523Z,984.03
2019-03-04T11:33:46.502Z,984.07
2019-03-04T11:34:46.559Z,984.08
2019-03-04T11:36:39.542Z,984.03
2019-03-04T11:37:39.593Z,984.07
2019-03-04T11:39:32.574Z,984.08
2019-03-04T11:40:32.633Z,984.14
2019-03-04T11:42:25.619Z,984.07
2019-03-04T11:43:25.673Z,984.05
2019-03-04T11:45:18.661Z,984.04
2019-03-04T11:46:18.715Z,984.11
2019-03-04T11:48:11.695Z,984.10
2019-03-04T11:49:11.751Z,984.15
2019-03-04T11:51:04.734Z,984.20
2019-03-04T11:52:04.783Z,984.27
2019-03-04T11:53:57.768Z,984.29
2019-03-04T11:54:57.817Z,984.36
2019-03-04T11:56:50.806Z,984.37
2019-03-04T11:57:50.853Z,984.34
2019-03-04T11:59:43.842Z,984.35
2019-03-04T12:00:43.893Z,984.46
2019-03-04T12:02:39.144Z,984.49
2019-03-04T12:03:36.937Z,984.52
2019-03-04T12:05:29.926Z,984.62
2019-03-04T12:06:29.981Z,984.64
2019-03-04T12:08:22.959Z,984.64
2019-03-04T12:09:23.017Z,984.63
2019-03-04T12:11:16.011Z,984.66
2019-03-04T12:12:16.055Z,984.62
2019-03-04T12:14:09.029Z,984.63
2019-03-04T12:15:09.088Z,984.65
2019-03-04T12:17:02.082Z,984.76
2019-03-04T12:18:02.135Z,984.74
2019-03-04T12:19:55.110Z,984.79
2019-03-04T12:20:55.167Z,984.81
2019-03-04T12:22:48.206Z,984.87
2019-03-04T12:23:48.208Z,984.81
2019-03-04T12:25:41.196Z,984.82
2019-03-04T12:26:41.247Z,984.91
2019-03-04T12:28:34.233Z,985.00
2019-03-04T12:29:34.287Z,985.00
2019-03-04T12:31:28.461Z,984.93
2019-03-04T12:32:27.327Z,984.90
2019-03-04T12:34:24.596Z,984.94
2019-03-04T12:35:20.365Z,985.02
2019-03-04T12:37:13.351Z,985.04
2019-03-04T12:38:13.404Z,985.05
2019-03-04T12:40:06.382Z,985.06
2019-03-04T12:41:06.439Z,985.14
2019-03-04T12:42:59.425Z,985.11
2019-03-04T12:43:59.475Z,985.19
2019-03-04T12:45:52.461Z,985.22
2019-03-04T12:46:52.511Z,985.22
2019-03-04T12:48:45.494Z,985.22
2019-03-04T12:49:45.572Z,985.23
2019-03-04T12:51:38.544Z,985.34
2019-03-04T12:52:38.593Z,985.34
2019-03-04T12:54:31.577Z,985.42
2019-03-04T12:55:31.635Z,985.47
2019-03-04T12:57:24.621Z,985.57
2019-03-04T12:58:24.670Z,985.57
2019-03-04T13:00:17.650Z,985.56
2019-03-04T13:01:17.708Z,985.52
2019-03-04T13:03:10.699Z,985.67
2019-03-04T13:04:10.752Z,985.58
2019-03-04T13:06:03.748Z,985.61
2019-03-04T13:07:03.789Z,985.71
2019-03-04T13:08:56.793Z,985.67
2019-03-04T13:09:56.835Z,985.70
2019-03-04T13:11:49.874Z,985.71
2019-03-04T13:12:49.876Z,985.75
2019-03-04T13:14:42.848Z,985.78
2019-03-04T13:15:42.905Z,985.71
2019-03-04T13:17:35.907Z,985.67
2019-03-04T13:18:35.957Z,985.69
2019-03-04T13:20:28.940Z,985.85
2019-03-04T13:21:28.997Z,985.54
2019-03-04T13:23:21.988Z,985.88
2019-03-04T13:24:22.042Z,985.77
2019-03-04T13:26:15.025Z,985.67
2019-03-04T13:27:23.534Z,985.80
2019-03-04T13:29:08.052Z,985.83
2019-03-04T13:30:08.111Z,985.78
2019-03-04T13:32:01.106Z,985.84
2019-03-04T13:33:01.150Z,985.88
2019-03-04T13:34:54.125Z,985.93
2019-03-04T13:35:54.194Z,986.02
2019-03-04T13:37:47.172Z,986.06
2019-03-04T13:38:47.221Z,986.03
2019-03-04T13:40:40.199Z,986.10
2019-03-04T13:41:40.256Z,986.08
2019-03-04T13:43:33.248Z,986.13
2019-03-04T13:44:33.295Z,986.12
2019-03-04T13:46:26.290Z,986.10
2019-03-04T13:47:26.357Z,986.07
2019-03-04T13:49:19.320Z,986.16
2019-03-04T13:50:19.377Z,986.28
2019-03-04T13:52:12.368Z,986.33
2019-03-04T13:53:12.418Z,986.36
2019-03-04T13:55:05.398Z,986.37
2019-03-04T13:56:05.455Z,986.48
2019-03-04T13:57:58.445Z,986.28
2019-03-04T13:58:58.491Z,986.51
2019-03-04T14:00:52.988Z,986.55
2019-03-04T14:01:53.034Z,986.57
2019-03-04T14:03:46.027Z,986.53
2019-03-04T14:04:46.076Z,986.56
2019-03-04T14:06:39.083Z,986.63
2019-03-04T14:07:39.113Z,986.70
2019-03-04T14:09:32.095Z,986.71
2019-03-04T14:10:32.149Z,986.73
2019-03-04T14:12:25.132Z,986.78
2019-03-04T14:13:25.193Z,986.78
2019-03-04T14:15:18.169Z,986.91
2019-03-04T14:16:18.218Z,986.99
2019-03-04T14:18:11.218Z,987.00
2019-03-04T14:19:11.266Z,986.99
2019-03-04T14:21:04.251Z,987.14
2019-03-04T14:22:04.303Z,987.10
2019-03-04T14:23:57.288Z,987.16
2019-03-04T14:24:57.339Z,987.27
2019-03-04T14:26:50.329Z,987.29
2019-03-04T14:27:50.378Z,987.24
2019-03-04T14:29:43.359Z,987.22
2019-03-04T14:30:43.423Z,987.29
2019-03-04T14:32:36.406Z,987.30
2019-03-04T14:33:36.456Z,987.40
2019-03-04T14:35:29.444Z,987.50
2019-03-04T14:36:29.496Z,987.29
2019-03-04T14:38:22.481Z,987.46
2019-03-04T14:39:22.531Z,987.47
2019-03-04T14:41:15.509Z,987.58
2019-03-04T14:42:15.566Z,987.59
2019-03-04T14:44:08.557Z,987.62
2019-03-04T14:45:08.603Z,987.61
2019-03-04T14:47:01.596Z,987.61
2019-03-04T14:48:01.638Z,987.67
2019-03-04T14:49:54.621Z,987.65
2019-03-04T14:50:54.689Z,987.72
2019-03-04T14:52:47.666Z,987.75
2019-03-04T14:53:47.711Z,987.72
2019-03-04T14:55:40.710Z,987.73
2019-03-04T14:56:40.749Z,987.84
2019-03-04T14:58:33.745Z,987.84
2019-03-04T14:59:33.789Z,987.93
2019-03-04T15:01:27.269Z,987.84
2019-03-04T15:02:27.330Z,988.00
2019-03-04T15:04:20.317Z,987.93
2019-03-04T15:05:20.363Z,987.94
2019-03-04T15:07:13.362Z,988.11
2019-03-04T15:08:13.401Z,988.00
2019-03-04T15:10:06.377Z,988.09
2019-03-04T15:11:06.444Z,988.08
2019-03-04T15:12:59.438Z,988.20
2019-03-04T15:13:59.487Z,988.18
2019-03-04T15:16:01.038Z,988.09
2019-03-04T15:16:52.526Z,988.11
2019-03-04T15:18:45.513Z,988.28
2019-03-04T15:19:45.562Z,988.33
2019-03-04T15:21:38.550Z,988.35
2019-03-04T15:22:38.598Z,988.46
2019-03-04T15:24:31.589Z,988.42
2019-03-04T15:25:31.636Z,988.45
2019-03-04T15:27:24.624Z,988.47
2019-03-04T15:28:24.670Z,988.50
2019-03-04T15:30:17.649Z,988.43
2019-03-04T15:31:17.704Z,988.45
2019-03-04T15:33:17.484Z,988.56
2019-03-04T15:34:10.739Z,988.60
2019-03-04T15:36:03.715Z,988.62
2019-03-04T15:37:03.771Z,988.59
2019-03-04T15:38:56.754Z,988.61
2019-03-04T15:39:56.806Z,988.66
2019-03-04T15:41:50.356Z,988.71
2019-03-04T15:42:49.852Z,988.75
2019-03-04T15:44:42.842Z,988.79
2019-03-04T15:45:42.894Z,988.72
2019-03-04T15:47:36.720Z,988.77
2019-03-04T15:48:35.928Z,988.87
2019-03-04T15:50:28.906Z,988.87
2019-03-04T15:51:28.971Z,988.91
2019-03-04T15:53:21.943Z,988.90
2019-03-04T15:54:21.995Z,988.95
2019-03-04T15:56:14.985Z,988.99
2019-03-04T15:57:15.059Z,989.00
2019-03-04T15:59:08.034Z,988.99
2019-03-04T16:00:08.088Z,989.04
2019-03-04T16:02:01.063Z,989.10
2019-03-04T16:03:01.354Z,989.16
2019-03-04T16:04:54.102Z,989.18
2019-03-04T16:05:54.153Z,989.18
2019-03-04T16:07:47.157Z,989.25
2019-03-04T16:08:47.190Z,989.25
2019-03-04T16:10:40.694Z,989.32
2019-03-04T16:11:40.280Z,989.43
2019-03-04T16:13:33.213Z,989.37
2019-03-04T16:14:33.261Z,989.35
2019-03-04T16:16:26.250Z,989.47
2019-03-04T16:17:26.303Z,989.40
2019-03-04T16:19:19.289Z,989.42
2019-03-04T16:20:19.338Z,989.48
2019-03-04T16:22:12.354Z,989.57
2019-03-04T16:23:12.374Z,989.61
2019-03-04T16:25:05.371Z,989.59
2019-03-04T16:26:05.406Z,989.65
2019-03-04T16:27:58.391Z,989.67
2019-03-04T16:28:58.440Z,989.80
2019-03-04T16:30:51.420Z,989.73
2019-03-04T16:31:51.475Z,989.68
2019-03-04T16:33:44.465Z,989.74
2019-03-04T16:34:44.513Z,989.75
2019-03-04T16:36:37.518Z,989.85
2019-03-04T16:37:37.540Z,989.80
2019-03-04T16:39:30.526Z,989.84
2019-03-04T16:40:30.588Z,989.88
2019-03-04T16:42:23.566Z,990.00
2019-03-04T16:43:23.615Z,989.97
2019-03-04T16:45:16.603Z,990.08
2019-03-04T16:46:16.906Z,990.13
2019-03-04T16:48:09.627Z,990.28
2019-03-04T16:49:09.676Z,990.18
2019-03-04T16:51:02.667Z,990.25
2019-03-04T16:52:02.812Z,990.24
2019-03-04T16:53:55.706Z,990.19
2019-03-04T16:54:57.307Z,990.23
2019-03-04T16:56:48.735Z,990.41
2019-03-04T16:57:48.783Z,990.31
2019-03-04T16:59:41.790Z,990.36
2019-03-04T17:00:41.820Z,990.26
2019-03-04T17:02:37.793Z,990.35
2019-03-04T17:03:37.852Z,990.47
2019-03-04T17:05:30.835Z,990.46
2019-03-04T17:06:30.886Z,990.45
2019-03-04T17:08:23.880Z,990.43
2019-03-04T17:09:23.931Z,990.50
2019-03-04T17:11:16.924Z,990.62
2019-03-04T17:12:16.978Z,990.65
2019-03-04T17:14:09.956Z,990.65
2019-03-04T17:15:10.022Z,990.72
2019-03-04T17:17:03.001Z,990.70
2019-03-04T17:18:03.039Z,990.77
2019-03-04T17:19:56.037Z,990.82
2019-03-04T17:20:56.072Z,990.84
2019-03-04T17:22:49.047Z,990.98
2019-03-04T17:23:49.316Z,990.84
2019-03-04T17:25:42.099Z,990.93
2019-03-04T17:26:42.135Z,990.95
2019-03-04T17:28:35.120Z,991.09
2019-03-04T17:29:35.165Z,991.06
2019-03-04T17:31:28.146Z,991.06
2019-03-04T17:32:28.206Z,991.10
2019-03-04T17:34:21.190Z,991.12
2019-03-04T17:35:21.244Z,991.18
2019-03-04T17:37:14.216Z,991.25
2019-03-04T17:38:14.272Z,991.23
2019-03-04T17:40:07.271Z,991.32
2019-03-04T17:41:07.322Z,991.34
2019-03-04T17:43:00.296Z,991.37
2019-03-04T17:44:00.353Z,991.45
2019-03-04T17:45:53.347Z,991.41
2019-03-04T17:46:53.391Z,991.46
2019-03-04T17:48:46.382Z,991.50
2019-03-04T17:49:46.426Z,991.51
2019-03-04T17:51:39.415Z,991.54
2019-03-04T17:52:39.494Z,991.56
2019-03-04T17:54:32.457Z,991.62
2019-03-04T17:55:32.506Z,991.53
2019-03-04T17:57:25.482Z,991.62
2019-03-04T17:58:25.538Z,991.57
2019-03-04T18:00:18.524Z,991.62